Time;durP1;ratioP1;P1;durP2;ratioP2;P2;SDS_P1;SDS_P2;PMS_P1;PMS_P2;Temp;Humidity;BMP_temperature;BMP_pressure;BME280_temperature;BME280_humidity;BME280_pressure;Samples;Min_cycle;Max_cycle;Signal;HPM_P1;HPM_P2
2021/12/24 00:01:38;;;;;;;43.95;19.23;;;;;;;;;;5060031;28;20039;-70
2021/12/24 00:04:04;;;;;;;43.40;20.17;;;;;;;;;;5063714;28;20033;-70
2021/12/24 00:06:30;;;;;;;49.03;21.48;;;;;;;;;;5059053;28;20761;-69
2021/12/24 00:08:56;;;;;;;44.85;19.27;;;;;;;;;;5069177;28;20043;-70
2021/12/24 00:11:22;;;;;;;39.85;17.73;;;;;;;;;;5063470;28;20471;-70
2021/12/24 00:13:50;;;;;;;58.25;23.70;;;;;;;;;;5055912;28;20052;-70
2021/12/24 00:16:26;;;;;;;59.33;22.25;;;;;;;;;;5057314;28;20025;-70
2021/12/24 00:18:59;;;;;;;57.10;22.45;;;;;;;;;;5059474;28;20043;-70
2021/12/24 00:37:23;;;;;;;34.63;15.20;;;;;;;;;;5057777;28;20082;-68
2021/12/24 00:40:03;;;;;;;33.95;14.75;;;;;;;;;;5062363;28;20480;-67
2021/12/24 00:42:29;;;;;;;47.65;20.85;;;;;;;;;;5065841;28;20194;-69
2021/12/24 00:44:55;;;;;;;41.33;18.65;;;;;;;;;;5058872;28;20033;-69
2021/12/24 00:47:20;;;;;;;34.10;16.52;;;;;;;;;;5059644;28;20101;-68
2021/12/24 00:49:45;;;;;;;35.05;15.50;;;;;;;;;;5056856;28;20047;-68
2021/12/24 00:55:02;;;;;;;31.58;13.50;;;;;;;;;;5053343;28;20116;-70
2021/12/24 00:57:29;;;;;;;43.05;18.25;;;;;;;;;;5057217;28;20052;-69
2021/12/24 00:59:55;;;;;;;50.35;21.23;;;;;;;;;;5056737;28;20033;-70
2021/12/24 01:02:21;;;;;;;41.85;19.10;;;;;;;;;;5054472;28;20478;-69
2021/12/24 01:04:47;;;;;;;36.75;16.95;;;;;;;;;;5055352;28;20111;-69
2021/12/24 01:07:12;;;;;;;43.10;18.67;;;;;;;;;;5054807;28;20124;-73
2021/12/24 01:09:38;;;;;;;46.95;20.40;;;;;;;;;;5059367;28;20501;-68
2021/12/24 01:12:04;;;;;;;30.05;14.10;;;;;;;;;;5066599;28;20048;-73
2021/12/24 01:14:30;;;;;;;25.48;13.45;;;;;;;;;;5055544;28;20044;-68
2021/12/24 01:17:09;;;;;;;32.90;15.93;;;;;;;;;;5058176;28;20036;-68
2021/12/24 01:19:38;;;;;;;29.00;15.02;;;;;;;;;;5058114;28;20036;-68
2021/12/24 01:24:59;;;;;;;39.53;17.98;;;;;;;;;;5057018;28;20501;-68
2021/12/24 01:38:11;;;;;;;26.50;11.80;;;;;;;;;;5054754;28;20544;-67
2021/12/24 01:41:03;;;;;;;24.75;13.70;;;;;;;;;;5054066;28;20033;-67
2021/12/24 01:43:27;;;;;;;33.83;16.05;;;;;;;;;;5062681;28;20056;-68
2021/12/24 01:45:55;;;;;;;37.25;17.75;;;;;;;;;;5053423;28;20037;-68
2021/12/24 01:48:21;;;;;;;36.85;17.40;;;;;;;;;;5058883;28;20024;-68
2021/12/24 01:50:49;;;;;;;39.83;17.58;;;;;;;;;;5059241;28;20032;-67
2021/12/24 01:53:17;;;;;;;37.10;17.70;;;;;;;;;;5057277;28;20040;-72
2021/12/24 01:55:45;;;;;;;28.67;14.18;;;;;;;;;;5054272;28;20037;-67
2021/12/24 01:58:11;;;;;;;39.38;18.65;;;;;;;;;;5051112;28;20036;-67
2021/12/24 02:00:40;;;;;;;36.92;18.45;;;;;;;;;;5061902;28;20041;-67
2021/12/24 02:03:07;;;;;;;30.52;16.05;;;;;;;;;;5056467;28;20032;-67
2021/12/24 02:05:33;;;;;;;27.17;13.80;;;;;;;;;;5056041;28;20093;-67
2021/12/24 02:08:02;;;;;;;26.70;13.65;;;;;;;;;;5057649;28;20040;-67
2021/12/24 02:10:29;;;;;;;28.40;14.60;;;;;;;;;;5055305;28;20033;-68
2021/12/24 02:12:55;;;;;;;25.77;12.55;;;;;;;;;;5059204;28;20555;-67
2021/12/24 02:28:42;;;;;;;39.47;20.48;;;;;;;;;;5065136;28;20492;-69
2021/12/24 02:31:17;;;;;;;31.17;15.77;;;;;;;;;;5054774;28;20051;-68
2021/12/24 02:33:42;;;;;;;34.35;17.23;;;;;;;;;;5052880;28;20094;-69
2021/12/24 02:36:09;;;;;;;46.30;23.17;;;;;;;;;;5056952;28;20033;-68
2021/12/24 02:38:36;;;;;;;43.33;19.08;;;;;;;;;;5060184;28;20262;-67
2021/12/24 02:41:02;;;;;;;44.10;20.83;;;;;;;;;;5055943;28;20416;-66
2021/12/24 02:43:28;;;;;;;47.33;22.15;;;;;;;;;;5056816;28;20041;-67
2021/12/24 02:45:58;;;;;;;35.03;18.23;;;;;;;;;;5054784;28;20053;-67
2021/12/24 02:56:23;;;;;;;42.42;19.42;;;;;;;;;;5060396;28;20044;-71
2021/12/24 02:58:49;;;;;;;52.60;23.48;;;;;;;;;;5070045;28;20032;-67
2021/12/24 03:01:18;;;;;;;54.05;23.30;;;;;;;;;;5057326;28;20036;-67
2021/12/24 03:03:48;;;;;;;44.00;20.42;;;;;;;;;;5062151;28;20547;-67
2021/12/24 03:06:16;;;;;;;32.63;15.73;;;;;;;;;;5057537;28;20454;-67
2021/12/24 03:08:42;;;;;;;39.33;19.33;;;;;;;;;;5060392;28;20025;-67
2021/12/24 03:11:07;;;;;;;50.13;22.63;;;;;;;;;;5060012;28;20102;-68
2021/12/24 03:13:35;;;;;;;56.22;24.95;;;;;;;;;;5056175;28;20053;-67
2021/12/24 03:16:01;;;;;;;44.58;20.15;;;;;;;;;;5055878;28;20032;-68
2021/12/24 03:18:30;;;;;;;41.22;20.20;;;;;;;;;;5054511;28;20044;-67
2021/12/24 03:21:05;;;;;;;47.60;20.92;;;;;;;;;;5060200;28;20032;-67
2021/12/24 03:23:37;;;;;;;37.88;18.35;;;;;;;;;;5056140;28;20040;-67
2021/12/24 03:26:05;;;;;;;38.80;18.52;;;;;;;;;;5055090;28;20035;-67
2021/12/24 03:28:31;;;;;;;35.13;16.77;;;;;;;;;;5055627;28;20112;-68
2021/12/24 03:30:59;;;;;;;40.97;19.10;;;;;;;;;;5055489;28;20112;-67
2021/12/24 03:33:25;;;;;;;41.92;19.73;;;;;;;;;;5057916;28;20029;-67
2021/12/24 03:35:50;;;;;;;46.80;20.40;;;;;;;;;;5053551;28;20036;-68
2021/12/24 03:38:16;;;;;;;34.30;16.33;;;;;;;;;;5061696;28;20035;-70
2021/12/24 03:40:41;;;;;;;49.25;23.02;;;;;;;;;;5054381;28;20028;-67
2021/12/24 03:43:07;;;;;;;47.30;22.52;;;;;;;;;;5063984;28;20029;-68
2021/12/24 03:56:32;;;;;;;49.03;21.38;;;;;;;;;;5053193;28;20183;-68
2021/12/24 03:58:58;;;;;;;37.28;17.65;;;;;;;;;;5058147;28;20765;-67
2021/12/24 04:01:24;;;;;;;61.25;25.00;;;;;;;;;;5062456;28;20413;-68
2021/12/24 04:03:49;;;;;;;57.25;23.58;;;;;;;;;;5057581;28;20393;-67
2021/12/24 04:06:15;;;;;;;48.72;21.08;;;;;;;;;;5068453;28;20032;-67
2021/12/24 04:08:40;;;;;;;53.22;23.42;;;;;;;;;;5056686;28;20068;-67
2021/12/24 04:11:06;;;;;;;72.40;29.77;;;;;;;;;;5057905;28;20385;-67
2021/12/24 04:13:33;;;;;;;66.75;27.90;;;;;;;;;;5054131;28;20048;-67
2021/12/24 04:15:59;;;;;;;76.53;29.50;;;;;;;;;;5061035;28;20063;-67
2021/12/24 04:26:21;;;;;;;60.25;25.13;;;;;;;;;;5055307;28;20086;-71
2021/12/24 04:28:47;;;;;;;51.38;21.95;;;;;;;;;;5060012;28;20040;-67
2021/12/24 04:31:13;;;;;;;53.70;23.30;;;;;;;;;;5052002;28;20095;-66
2021/12/24 04:33:45;;;;;;;46.65;21.52;;;;;;;;;;5053840;28;20295;-67
2021/12/24 05:03:28;;;;;;;87.22;30.25;;;;;;;;;;5059131;28;20086;-67
2021/12/24 05:06:07;;;;;;;71.60;27.35;;;;;;;;;;5059356;28;20041;-68
2021/12/24 05:08:41;;;;;;;59.72;24.13;;;;;;;;;;5053030;28;20394;-68
2021/12/24 05:11:12;;;;;;;52.75;23.05;;;;;;;;;;5059433;28;20036;-67
2021/12/24 05:13:38;;;;;;;89.00;31.85;;;;;;;;;;5052582;28;20098;-67
2021/12/24 05:16:22;;;;;;;82.30;31.10;;;;;;;;;;5060466;28;20033;-67
2021/12/24 05:21:33;;;;;;;64.57;26.45;;;;;;;;;;5060051;28;20033;-67
2021/12/24 05:24:04;;;;;;;53.03;21.48;;;;;;;;;;5055904;28;20029;-67
2021/12/24 05:26:29;;;;;;;;;;;;;;;;;;5057081;28;20032;-65
2021/12/24 05:28:56;;;;;;;54.88;22.77;;;;;;;;;;5051193;28;19912;-65
2021/12/24 05:31:22;;;;;;;69.78;28.13;;;;;;;;;;5061867;28;20056;-71
2021/12/24 05:33:47;;;;;;;74.28;28.65;;;;;;;;;;5055910;28;20064;-66
2021/12/24 05:36:13;;;;;;;49.80;21.77;;;;;;;;;;5060976;28;20029;-66
2021/12/24 05:38:38;;;;;;;59.67;22.80;;;;;;;;;;5053949;28;20112;-66
2021/12/24 05:41:04;;;;;;;65.07;26.55;;;;;;;;;;5058791;28;20036;-67
2021/12/24 05:43:29;;;;;;;72.55;27.35;;;;;;;;;;5054157;28;20455;-67
2021/12/24 05:45:54;;;;;;;66.47;26.70;;;;;;;;;;5056623;28;20098;-66
2021/12/24 05:48:20;;;;;;;61.30;25.23;;;;;;;;;;5061101;28;20040;-66
2021/12/24 05:50:45;;;;;;;41.20;19.90;;;;;;;;;;5057302;28;20037;-66
2021/12/24 05:53:11;;;;;;;72.60;27.92;;;;;;;;;;5061258;28;20371;-67
2021/12/24 05:55:36;;;;;;;62.25;24.73;;;;;;;;;;5057508;28;20029;-67
2021/12/24 05:58:06;;;;;;;57.75;25.38;;;;;;;;;;5059521;28;20061;-66
2021/12/24 06:00:32;;;;;;;52.30;21.52;;;;;;;;;;5061409;28;20056;-67
2021/12/24 06:02:57;;;;;;;48.40;19.17;;;;;;;;;;5054077;28;20052;-67
2021/12/24 06:05:23;;;;;;;60.05;24.90;;;;;;;;;;5064220;28;20044;-70
2021/12/24 06:07:48;;;;;;;58.50;24.38;;;;;;;;;;5063481;28;20471;-64
2021/12/24 06:10:14;;;;;;;55.25;21.73;;;;;;;;;;5057839;28;20053;-67
2021/12/24 06:12:39;;;;;;;73.25;25.20;;;;;;;;;;5053962;28;20045;-67
2021/12/24 06:15:07;;;;;;;57.15;23.13;;;;;;;;;;5062478;28;20398;-66
2021/12/24 06:17:36;;;;;;;60.08;24.13;;;;;;;;;;5058469;28;20053;-66
2021/12/24 06:20:02;;;;;;;60.47;23.67;;;;;;;;;;5057612;28;20068;-66
2021/12/24 06:22:28;;;;;;;49.78;20.15;;;;;;;;;;5056582;28;20508;-66
2021/12/24 06:24:53;;;;;;;53.65;21.40;;;;;;;;;;5058774;28;20117;-66
2021/12/24 06:27:18;;;;;;;53.65;21.38;;;;;;;;;;5056726;28;20057;-65
2021/12/24 06:29:44;;;;;;;51.45;19.48;;;;;;;;;;5069104;28;20465;-66
2021/12/24 06:32:09;;;;;;;62.45;22.38;;;;;;;;;;5072344;28;20478;-67
2021/12/24 06:34:35;;;;;;;63.38;25.00;;;;;;;;;;5058863;28;20037;-65
2021/12/24 06:37:00;;;;;;;62.75;25.42;;;;;;;;;;5068192;28;20452;-67
2021/12/24 06:39:26;;;;;;;60.58;22.50;;;;;;;;;;5053314;28;20032;-69
2021/12/24 06:41:53;;;;;;;61.75;24.80;;;;;;;;;;5064675;28;20538;-67
2021/12/24 06:44:20;;;;;;;57.70;22.13;;;;;;;;;;5063536;28;20105;-67
2021/12/24 06:46:46;;;;;;;59.15;21.80;;;;;;;;;;5058788;28;20233;-68
2021/12/24 06:49:11;;;;;;;70.22;27.25;;;;;;;;;;5057080;28;20518;-67
2021/12/24 06:51:37;;;;;;;70.55;25.00;;;;;;;;;;5053802;28;20474;-67
2021/12/24 06:54:03;;;;;;;73.68;27.67;;;;;;;;;;5061635;28;20501;-67
2021/12/24 06:56:29;;;;;;;61.47;25.80;;;;;;;;;;5059021;28;20405;-70
2021/12/24 06:58:54;;;;;;;49.58;22.30;;;;;;;;;;5051804;28;20025;-68
2021/12/24 07:01:20;;;;;;;69.15;26.85;;;;;;;;;;5060773;28;20029;-68
2021/12/24 07:03:45;;;;;;;45.38;20.00;;;;;;;;;;5052971;28;20025;-69
2021/12/24 07:06:11;;;;;;;69.10;26.48;;;;;;;;;;5063735;28;20039;-69
2021/12/24 07:08:37;;;;;;;55.75;22.10;;;;;;;;;;5056575;28;20441;-70
2021/12/24 07:11:03;;;;;;;57.97;23.77;;;;;;;;;;5058091;28;20463;-71
2021/12/24 07:13:28;;;;;;;70.32;26.20;;;;;;;;;;5060131;28;20049;-70
2021/12/24 07:15:54;;;;;;;60.17;25.05;;;;;;;;;;5057112;28;20059;-70
2021/12/24 07:18:20;;;;;;;66.78;27.73;;;;;;;;;;5065131;28;20031;-71
2021/12/24 07:20:46;;;;;;;77.90;28.85;;;;;;;;;;5062944;28;20024;-71
2021/12/24 07:23:11;;;;;;;58.90;23.52;;;;;;;;;;5067110;28;20038;-71
2021/12/24 07:25:37;;;;;;;56.72;23.60;;;;;;;;;;5059668;28;20039;-71
2021/12/24 07:28:03;;;;;;;50.88;20.35;;;;;;;;;;5067702;28;20036;-71
2021/12/24 07:30:29;;;;;;;61.58;24.08;;;;;;;;;;5068995;28;20051;-72
2021/12/24 07:32:54;;;;;;;49.10;20.13;;;;;;;;;;5070916;28;20497;-67
2021/12/24 07:35:20;;;;;;;42.42;17.52;;;;;;;;;;5069635;28;20064;-69
2021/12/24 07:37:46;;;;;;;43.05;19.77;;;;;;;;;;5069596;28;20086;-67
2021/12/24 07:40:15;;;;;;;60.05;23.52;;;;;;;;;;5073476;28;20451;-66
2021/12/24 07:42:42;;;;;;;31.83;15.25;;;;;;;;;;5071830;28;20035;-67
2021/12/24 07:45:09;;;;;;;36.25;17.88;;;;;;;;;;5072837;28;20046;-67
2021/12/24 07:47:40;;;;;;;47.80;18.55;;;;;;;;;;5069076;28;20047;-67
2021/12/24 07:53:08;;;;;;;45.90;19.77;;;;;;;;;;5023228;28;20038;-67
2021/12/24 07:55:34;;;;;;;40.40;17.98;;;;;;;;;;5068094;28;20358;-67
2021/12/24 07:58:00;;;;;;;41.65;19.35;;;;;;;;;;5068809;28;20481;-67
2021/12/24 08:00:27;;;;;;;36.22;17.50;;;;;;;;;;5072750;28;20107;-68
2021/12/24 08:02:57;;;;;;;38.63;16.45;;;;;;;;;;5071386;28;20497;-69
2021/12/24 08:05:25;;;;;;;49.20;19.33;;;;;;;;;;5070391;28;20390;-68
2021/12/24 08:07:52;;;;;;;40.88;16.95;;;;;;;;;;5071103;28;20021;-68
2021/12/24 08:10:19;;;;;;;37.75;16.92;;;;;;;;;;5072369;28;20089;-68
2021/12/24 08:12:44;;;;;;;33.05;15.02;;;;;;;;;;5069736;28;20105;-68
2021/12/24 08:15:10;;;;;;;29.65;14.00;;;;;;;;;;5071838;28;20029;-67
2021/12/24 08:17:36;;;;;;;34.78;16.45;;;;;;;;;;5070685;28;20074;-68
2021/12/24 08:20:03;;;;;;;32.28;14.18;;;;;;;;;;5066135;28;20083;-68
2021/12/24 08:22:28;;;;;;;31.08;13.50;;;;;;;;;;5067647;28;20111;-68
2021/12/24 08:24:54;;;;;;;31.10;11.90;;;;;;;;;;5069717;28;20119;-68
2021/12/24 08:27:21;;;;;;;32.63;15.55;;;;;;;;;;5070992;28;20458;-67
2021/12/24 08:29:47;;;;;;;27.08;12.30;;;;;;;;;;5070648;28;20032;-68
2021/12/24 08:32:13;;;;;;;35.60;14.43;;;;;;;;;;5071712;28;20032;-68
2021/12/24 08:34:39;;;;;;;29.40;11.60;;;;;;;;;;5068591;28;20398;-68
2021/12/24 08:37:04;;;;;;;25.77;11.15;;;;;;;;;;5071864;28;20032;-67
2021/12/24 08:39:30;;;;;;;23.75;11.05;;;;;;;;;;5071554;28;20033;-68
2021/12/24 08:41:55;;;;;;;28.30;12.15;;;;;;;;;;5070584;28;20073;-68
2021/12/24 08:44:24;;;;;;;29.30;12.88;;;;;;;;;;5070641;28;20032;-68
2021/12/24 08:46:49;;;;;;;27.63;12.60;;;;;;;;;;5070326;28;20036;-68
2021/12/24 08:49:15;;;;;;;33.75;13.13;;;;;;;;;;5070780;28;20389;-68
2021/12/24 08:51:40;;;;;;;27.90;12.45;;;;;;;;;;5069910;28;20406;-68
2021/12/24 08:54:06;;;;;;;29.05;12.00;;;;;;;;;;5071419;28;20416;-72
2021/12/24 08:56:32;;;;;;;30.20;10.43;;;;;;;;;;5069965;28;20036;-75
2021/12/24 08:58:57;;;;;;;27.33;10.40;;;;;;;;;;5069543;28;20488;-69
2021/12/24 09:01:23;;;;;;;32.03;13.32;;;;;;;;;;5069659;28;20025;-68
2021/12/24 09:03:49;;;;;;;38.03;14.30;;;;;;;;;;5068223;28;20033;-68
2021/12/24 09:06:14;;;;;;;30.33;12.18;;;;;;;;;;5070973;28;20066;-69
2021/12/24 09:08:42;;;;;;;37.85;11.68;;;;;;;;;;5070012;28;20478;-69
2021/12/24 09:11:08;;;;;;;28.75;12.82;;;;;;;;;;5071190;28;20056;-69
2021/12/24 09:13:33;;;;;;;33.40;14.00;;;;;;;;;;5069311;28;20044;-71
2021/12/24 09:15:59;;;;;;;34.45;14.15;;;;;;;;;;5073661;28;20044;-68
2021/12/24 09:18:24;;;;;;;33.25;14.93;;;;;;;;;;5074668;28;20036;-69
2021/12/24 09:20:50;;;;;;;30.70;14.18;;;;;;;;;;5072957;28;20045;-69
2021/12/24 09:23:17;;;;;;;31.63;14.98;;;;;;;;;;5073649;28;20047;-69
2021/12/24 09:25:43;;;;;;;32.97;13.02;;;;;;;;;;5065699;28;20120;-69
2021/12/24 09:28:10;;;;;;;32.45;15.27;;;;;;;;;;5068782;28;20123;-67
2021/12/24 09:30:36;;;;;;;31.73;14.57;;;;;;;;;;5074929;28;20017;-72
2021/12/24 09:33:03;;;;;;;35.90;15.32;;;;;;;;;;5066455;28;20367;-68
2021/12/24 09:35:29;;;;;;;36.30;18.45;;;;;;;;;;5059722;28;20036;-67
2021/12/24 09:37:56;;;;;;;34.30;16.20;;;;;;;;;;5070859;28;20640;-67
2021/12/24 09:40:21;;;;;;;35.92;16.13;;;;;;;;;;5074001;28;20470;-67
2021/12/24 09:42:48;;;;;;;27.15;13.57;;;;;;;;;;5074128;28;20040;-66
2021/12/24 09:45:14;;;;;;;36.30;18.55;;;;;;;;;;5074652;28;20033;-65
2021/12/24 09:47:40;;;;;;;35.00;14.55;;;;;;;;;;5073917;28;20466;-66
2021/12/24 09:50:08;;;;;;;43.88;17.83;;;;;;;;;;5074595;28;20036;-65
2021/12/24 09:52:37;;;;;;;39.38;16.75;;;;;;;;;;5074726;28;20040;-65
2021/12/24 09:55:08;;;;;;;31.58;14.05;;;;;;;;;;5074589;28;20035;-65
2021/12/24 09:57:34;;;;;;;38.88;17.08;;;;;;;;;;5070156;28;20386;-64
2021/12/24 09:59:59;;;;;;;31.38;13.90;;;;;;;;;;5073213;28;20032;-66
2021/12/24 10:02:39;;;;;;;30.38;12.13;;;;;;;;;;5074243;28;20036;-65
2021/12/24 10:05:34;;;;;;;39.25;17.40;;;;;;;;;;5073737;28;20021;-65
2021/12/24 10:08:18;;;;;;;30.67;13.60;;;;;;;;;;5072710;28;20044;-64
2021/12/24 10:10:46;;;;;;;36.65;15.68;;;;;;;;;;5064409;28;20081;-64
2021/12/24 10:13:32;;;;;;;34.08;14.48;;;;;;;;;;5074086;28;20047;-65
2021/12/24 10:16:03;;;;;;;37.70;15.65;;;;;;;;;;5073067;28;20282;-64
2021/12/24 10:18:38;;;;;;;37.40;15.85;;;;;;;;;;5074338;28;20125;-64
2021/12/24 10:21:06;;;;;;;31.33;15.15;;;;;;;;;;5073873;28;20036;-63
2021/12/24 10:23:47;;;;;;;23.40;10.55;;;;;;;;;;5068831;28;20112;-64
2021/12/24 10:26:20;;;;;;;28.40;11.90;;;;;;;;;;5053825;28;20029;-68
2021/12/24 10:28:59;;;;;;;34.05;11.85;;;;;;;;;;5055281;28;20111;-65
2021/12/24 10:31:32;;;;;;;25.90;11.88;;;;;;;;;;5068185;28;20048;-63
2021/12/24 10:34:19;;;;;;;28.77;12.63;;;;;;;;;;5072627;28;20116;-63
2021/12/24 10:36:54;;;;;;;34.80;14.43;;;;;;;;;;5073170;28;20041;-64
2021/12/24 10:39:23;;;;;;;37.88;14.95;;;;;;;;;;5074353;28;20052;-64
2021/12/24 10:41:51;;;;;;;41.60;15.95;;;;;;;;;;5070797;28;20126;-66
2021/12/24 10:44:17;;;;;;;34.28;12.77;;;;;;;;;;5071053;28;20123;-68
2021/12/24 10:47:04;;;;;;;37.83;16.15;;;;;;;;;;5067911;28;20028;-68
2021/12/24 10:54:55;;;;;;;30.08;11.80;;;;;;;;;;5061053;28;20048;-67
2021/12/24 10:57:23;;;;;;;35.33;13.30;;;;;;;;;;5073125;28;20032;-67
2021/12/24 10:59:51;;;;;;;32.97;13.63;;;;;;;;;;5069904;28;20033;-68
2021/12/24 11:02:18;;;;;;;33.67;14.27;;;;;;;;;;5071907;28;20041;-68
2021/12/24 11:04:44;;;;;;;35.65;12.20;;;;;;;;;;5069876;28;20037;-68
2021/12/24 11:07:41;;;;;;;29.67;11.85;;;;;;;;;;5073325;28;20120;-67
2021/12/24 11:10:19;;;;;;;26.65;11.23;;;;;;;;;;5072976;28;20462;-68
2021/12/24 11:12:48;;;;;;;26.48;11.02;;;;;;;;;;5071179;28;20543;-67
2021/12/24 11:15:31;;;;;;;31.08;12.25;;;;;;;;;;5073309;28;20046;-67
2021/12/24 11:18:17;;;;;;;28.60;11.32;;;;;;;;;;5071998;28;20040;-67
2021/12/24 11:20:45;;;;;;;36.63;12.57;;;;;;;;;;5072080;28;20032;-70
2021/12/24 11:23:12;;;;;;;26.20;10.23;;;;;;;;;;5072392;28;20064;-67
2021/12/24 11:25:39;;;;;;;27.92;10.88;;;;;;;;;;5072942;28;20032;-67
2021/12/24 11:28:06;;;;;;;20.05;9.50;;;;;;;;;;5071780;28;20434;-67
2021/12/24 11:30:34;;;;;;;30.92;11.88;;;;;;;;;;5072949;28;20028;-66
2021/12/24 11:33:00;;;;;;;25.17;9.98;;;;;;;;;;5069144;28;20135;-65
2021/12/24 11:35:27;;;;;;;32.90;13.70;;;;;;;;;;5072127;28;20116;-65
2021/12/24 11:37:53;;;;;;;40.45;13.85;;;;;;;;;;5066307;28;20109;-65
2021/12/24 11:40:21;;;;;;;32.28;13.65;;;;;;;;;;5072248;28;20509;-67
2021/12/24 11:42:52;;;;;;;35.85;13.70;;;;;;;;;;5070187;28;20028;-68
2021/12/24 11:45:21;;;;;;;38.28;15.45;;;;;;;;;;5052885;28;20039;-68
2021/12/24 11:47:47;;;;;;;29.70;14.25;;;;;;;;;;5066768;28;20044;-68
2021/12/24 11:50:12;;;;;;;39.58;14.13;;;;;;;;;;5071655;28;20033;-67
2021/12/24 11:52:40;;;;;;;37.53;14.85;;;;;;;;;;5072390;28;20485;-66
2021/12/24 11:55:06;;;;;;;31.25;13.23;;;;;;;;;;5066004;28;20028;-64
2021/12/24 11:57:32;;;;;;;36.15;12.93;;;;;;;;;;5072031;28;20089;-64
2021/12/24 12:00:09;;;;;;;32.60;12.55;;;;;;;;;;5071148;28;20111;-65
2021/12/24 12:02:45;;;;;;;46.75;16.23;;;;;;;;;;5072290;28;20115;-64
2021/12/24 12:05:16;;;;;;;40.55;15.52;;;;;;;;;;5072727;28;20063;-64
2021/12/24 12:07:41;;;;;;;40.75;14.85;;;;;;;;;;5072308;28;20066;-64
2021/12/24 12:10:07;;;;;;;47.40;17.40;;;;;;;;;;5056563;28;20045;-63
2021/12/24 12:12:34;;;;;;;54.92;16.42;;;;;;;;;;5070993;28;20067;-63
2021/12/24 12:15:30;;;;;;;43.25;16.20;;;;;;;;;;5070220;28;20028;-64
2021/12/24 12:18:04;;;;;;;38.10;15.70;;;;;;;;;;5051582;28;20053;-64
2021/12/24 12:20:49;;;;;;;40.22;14.63;;;;;;;;;;5069577;28;20036;-64
2021/12/24 12:26:39;;;;;;;53.45;16.63;;;;;;;;;;5040749;28;20044;-64
2021/12/24 12:29:16;;;;;;;;;;;;;;;;;;5070737;28;20033;-62
2021/12/24 12:31:41;;;;;;;37.65;13.68;;;;;;;;;;5071548;28;19916;-64
2021/12/24 12:34:41;;;;;;;42.85;14.45;;;;;;;;;;5069847;28;20024;-65
2021/12/24 12:37:23;;;;;;;39.88;14.80;;;;;;;;;;5070712;28;20583;-65
2021/12/24 12:39:55;;;;;;;39.53;15.98;;;;;;;;;;5058139;28;20032;-66
2021/12/24 12:42:24;;;;;;;40.95;14.75;;;;;;;;;;5087489;28;20043;-64
2021/12/24 12:44:54;;;;;;;29.27;13.40;;;;;;;;;;5073826;28;20020;-65
2021/12/24 12:47:28;;;;;;;26.90;11.53;;;;;;;;;;5086241;28;20119;-64
2021/12/24 12:50:17;;;;;;;33.03;13.35;;;;;;;;;;5073413;28;20261;-64
2021/12/24 12:52:43;;;;;;;36.03;14.43;;;;;;;;;;5072093;28;20194;-64
2021/12/24 12:55:40;;;;;;;35.15;14.88;;;;;;;;;;5070123;28;20994;-65
2021/12/24 12:58:35;;;;;;;51.88;17.27;;;;;;;;;;5059540;28;20113;-65
2021/12/24 13:01:06;;;;;;;43.72;16.67;;;;;;;;;;5068861;28;20094;-66
2021/12/24 13:03:33;;;;;;;40.60;13.82;;;;;;;;;;5069499;28;20135;-67
2021/12/24 13:06:08;;;;;;;39.33;14.77;;;;;;;;;;5070193;28;20036;-67
2021/12/24 13:08:36;;;;;;;41.50;16.88;;;;;;;;;;5060876;28;20115;-67
2021/12/24 13:11:17;;;;;;;46.22;16.45;;;;;;;;;;5050363;28;20033;-67
2021/12/24 13:13:56;;;;;;;40.33;15.02;;;;;;;;;;5051179;28;20080;-67
2021/12/24 13:16:32;;;;;;;48.75;16.80;;;;;;;;;;5051119;28;20479;-67
2021/12/24 13:25:13;;;;;;;30.80;13.87;;;;;;;;;;5051654;28;20082;-66
2021/12/24 13:27:51;;;;;;;41.60;15.98;;;;;;;;;;5054377;28;20049;-66
2021/12/24 13:30:24;;;;;;;51.05;18.85;;;;;;;;;;5063726;28;20032;-67
2021/12/24 13:32:52;;;;;;;44.38;16.85;;;;;;;;;;5054962;28;20534;-70
2021/12/24 13:35:20;;;;;;;22.02;11.32;;;;;;;;;;5050860;28;20354;-66
2021/12/24 13:37:46;;;;;;;42.90;16.85;;;;;;;;;;5057897;28;20028;-67
2021/12/24 13:40:20;;;;;;;42.88;19.50;;;;;;;;;;5065996;28;20509;-66
2021/12/24 13:42:55;;;;;;;43.22;17.80;;;;;;;;;;5070871;28;20036;-66
2021/12/24 13:45:22;;;;;;;42.53;17.92;;;;;;;;;;5067708;28;20021;-66
2021/12/24 13:48:03;;;;;;;45.33;17.70;;;;;;;;;;5051253;28;20033;-68
2021/12/24 13:56:26;;;;;;;46.60;20.73;;;;;;;;;;5051182;28;20444;-67
2021/12/24 13:58:57;;;;;;;55.50;23.08;;;;;;;;;;5079547;28;20031;-69
2021/12/24 14:01:25;;;;;;;42.92;20.30;;;;;;;;;;5069070;28;20036;-66
2021/12/24 14:03:50;;;;;;;57.97;23.35;;;;;;;;;;5073436;28;20029;-68
2021/12/24 14:06:16;;;;;;;48.15;21.52;;;;;;;;;;5072757;28;20052;-65
2021/12/24 14:08:41;;;;;;;40.15;17.42;;;;;;;;;;5075049;28;20027;-66
2021/12/24 14:11:20;;;;;;;44.05;19.38;;;;;;;;;;5076589;28;20043;-65
2021/12/24 14:13:54;;;;;;;38.92;16.85;;;;;;;;;;5075251;28;20494;-66
2021/12/24 14:18:54;;;;;;;39.88;18.38;;;;;;;;;;5072956;28;20397;-70
2021/12/24 14:24:21;;;;;;;46.30;18.23;;;;;;;;;;5073941;28;20072;-67
2021/12/24 14:26:49;;;;;;;39.22;16.00;;;;;;;;;;5074367;28;20037;-67
2021/12/24 14:29:36;;;;;;;40.47;17.55;;;;;;;;;;5073887;28;20040;-67
2021/12/24 14:32:05;;;;;;;35.78;15.63;;;;;;;;;;5072493;28;20675;-67
2021/12/24 14:34:58;;;;;;;40.03;17.30;;;;;;;;;;5073200;28;20040;-67
2021/12/24 14:37:33;;;;;;;19.67;10.43;;;;;;;;;;5072640;28;20424;-67
2021/12/24 14:40:09;;;;;;;39.53;16.30;;;;;;;;;;5073003;28;20367;-67
2021/12/24 14:42:47;;;;;;;32.60;16.02;;;;;;;;;;5072181;28;20406;-65
2021/12/24 14:45:23;;;;;;;34.00;13.60;;;;;;;;;;5078368;28;20036;-65
2021/12/24 14:48:03;;;;;;;34.15;14.95;;;;;;;;;;5074913;28;20039;-66
2021/12/24 14:50:31;;;;;;;41.92;16.58;;;;;;;;;;5073734;28;20455;-66
2021/12/24 14:53:07;;;;;;;36.63;16.95;;;;;;;;;;5071667;28;20036;-67
2021/12/24 14:55:46;;;;;;;37.75;15.60;;;;;;;;;;5073164;28;20463;-67
2021/12/24 14:58:16;;;;;;;35.33;15.68;;;;;;;;;;5072366;28;20284;-67
2021/12/24 15:00:46;;;;;;;43.20;17.17;;;;;;;;;;5072668;28;20032;-67
2021/12/24 15:03:15;;;;;;;37.03;15.68;;;;;;;;;;5073251;28;20360;-67
2021/12/24 15:05:45;;;;;;;32.25;15.38;;;;;;;;;;5065868;28;20382;-67
2021/12/24 15:08:25;;;;;;;34.83;16.47;;;;;;;;;;5053049;28;20036;-67
2021/12/24 15:11:07;;;;;;;36.33;15.48;;;;;;;;;;5054051;28;20036;-67
2021/12/24 15:13:37;;;;;;;33.72;16.08;;;;;;;;;;5052080;28;20041;-67
2021/12/24 15:16:02;;;;;;;31.92;14.15;;;;;;;;;;5052680;28;20025;-67
2021/12/24 15:18:28;;;;;;;34.22;16.10;;;;;;;;;;5053458;28;20111;-67
2021/12/24 15:20:54;;;;;;;48.88;17.35;;;;;;;;;;5073512;28;20056;-71
2021/12/24 15:23:19;;;;;;;35.45;15.88;;;;;;;;;;5072702;28;20060;-67
2021/12/24 15:25:46;;;;;;;35.05;14.48;;;;;;;;;;5073314;28;20096;-67
2021/12/24 15:28:15;;;;;;;42.30;17.77;;;;;;;;;;5071449;28;20508;-67
2021/12/24 15:30:41;;;;;;;39.78;16.83;;;;;;;;;;5073741;28;20075;-67
2021/12/24 15:33:08;;;;;;;39.00;16.83;;;;;;;;;;5072867;28;20037;-67
2021/12/24 15:35:34;;;;;;;36.45;15.00;;;;;;;;;;5073165;28;20154;-67
2021/12/24 15:38:01;;;;;;;38.88;16.35;;;;;;;;;;5072759;28;20028;-67
2021/12/24 15:40:27;;;;;;;38.08;16.70;;;;;;;;;;5072694;28;20047;-67
2021/12/24 15:42:53;;;;;;;35.58;14.57;;;;;;;;;;5072877;28;20099;-66
2021/12/24 15:45:19;;;;;;;29.55;12.23;;;;;;;;;;5071805;28;20032;-67
2021/12/24 15:47:45;;;;;;;34.55;15.57;;;;;;;;;;5072883;28;20032;-66
2021/12/24 15:50:11;;;;;;;38.38;16.90;;;;;;;;;;5071846;28;20037;-66
2021/12/24 15:52:36;;;;;;;44.90;16.88;;;;;;;;;;5072221;28;20119;-66
2021/12/24 15:55:02;;;;;;;38.15;16.48;;;;;;;;;;5071726;28;20036;-67
2021/12/24 15:57:27;;;;;;;39.70;17.38;;;;;;;;;;5072514;28;20506;-66
2021/12/24 15:59:53;;;;;;;31.45;15.43;;;;;;;;;;5072010;28;20048;-66
2021/12/24 16:02:18;;;;;;;41.22;16.35;;;;;;;;;;5067950;28;20040;-66
2021/12/24 16:04:43;;;;;;;34.45;15.65;;;;;;;;;;5063140;28;20489;-66
2021/12/24 16:07:09;;;;;;;38.78;17.00;;;;;;;;;;5069661;28;20032;-67
2021/12/24 16:09:35;;;;;;;41.83;17.90;;;;;;;;;;5071140;28;20370;-67
2021/12/24 16:12:01;;;;;;;34.80;14.50;;;;;;;;;;5069034;28;20028;-68
2021/12/24 16:14:27;;;;;;;36.03;14.77;;;;;;;;;;5070053;28;20531;-66
2021/12/24 16:16:54;;;;;;;46.17;18.75;;;;;;;;;;5069927;28;20047;-66
2021/12/24 16:19:22;;;;;;;44.50;19.52;;;;;;;;;;5065305;28;20335;-66
2021/12/24 16:21:48;;;;;;;40.65;19.10;;;;;;;;;;5070936;28;20032;-66
2021/12/24 16:24:16;;;;;;;45.28;19.15;;;;;;;;;;5068690;28;20432;-66
2021/12/24 16:26:41;;;;;;;45.00;20.48;;;;;;;;;;5068170;28;21321;-66
2021/12/24 16:29:08;;;;;;;40.65;18.50;;;;;;;;;;5071331;28;20032;-66
2021/12/24 16:31:34;;;;;;;44.97;19.77;;;;;;;;;;5070171;28;20033;-66
2021/12/24 16:34:01;;;;;;;42.15;19.10;;;;;;;;;;5069610;28;20029;-72
2021/12/24 16:36:27;;;;;;;50.00;21.48;;;;;;;;;;5064883;28;20036;-67
2021/12/24 16:38:52;;;;;;;43.83;19.15;;;;;;;;;;5070087;28;20079;-64
2021/12/24 16:41:18;;;;;;;51.42;21.08;;;;;;;;;;5069664;28;20631;-64